sensor_id;sensor_type;location;lat;lon;timestamp;temperature;humidity
7232;DHT22;3657;49.630;11.018;2023-06-19T00:02:16;25.10;50.40
7232;DHT22;3657;49.630;11.018;2023-06-19T00:04:43;25.10;50.50
7232;DHT22;3657;49.630;11.018;2023-06-19T00:07:10;25.10;50.60
7232;DHT22;3657;49.630;11.018;2023-06-19T00:09:36;25.00;50.60
7232;DHT22;3657;49.630;11.018;2023-06-19T00:12:05;25.00;50.60
7232;DHT22;3657;49.630;11.018;2023-06-19T00:14:32;24.90;50.60
7232;DHT22;3657;49.630;11.018;2023-06-19T00:17:01;24.90;50.60
7232;DHT22;3657;49.630;11.018;2023-06-19T00:19:28;24.90;50.60
7232;DHT22;3657;49.630;11.018;2023-06-19T00:21:54;24.90;50.70
7232;DHT22;3657;49.630;11.018;2023-06-19T00:24:22;24.80;50.70
7232;DHT22;3657;49.630;11.018;2023-06-19T00:26:49;24.80;50.70
7232;DHT22;3657;49.630;11.018;2023-06-19T00:29:17;24.80;50.80
7232;DHT22;3657;49.630;11.018;2023-06-19T00:31:44;24.70;50.80
7232;DHT22;3657;49.630;11.018;2023-06-19T00:34:10;24.70;50.80
7232;DHT22;3657;49.630;11.018;2023-06-19T00:36:37;24.70;50.80
7232;DHT22;3657;49.630;11.018;2023-06-19T00:39:05;24.70;50.90
7232;DHT22;3657;49.630;11.018;2023-06-19T00:41:34;24.60;50.80
7232;DHT22;3657;49.630;11.018;2023-06-19T00:44:01;24.60;50.90
7232;DHT22;3657;49.630;11.018;2023-06-19T00:46:30;24.60;50.90
7232;DHT22;3657;49.630;11.018;2023-06-19T00:48:57;24.60;51.00
7232;DHT22;3657;49.630;11.018;2023-06-19T00:51:24;24.50;51.00
7232;DHT22;3657;49.630;11.018;2023-06-19T00:53:51;24.50;51.10
7232;DHT22;3657;49.630;11.018;2023-06-19T00:56:18;24.50;51.10
7232;DHT22;3657;49.630;11.018;2023-06-19T00:58:45;24.40;51.00
7232;DHT22;3657;49.630;11.018;2023-06-19T01:01:11;24.40;51.10
7232;DHT22;3657;49.630;11.018;2023-06-19T01:03:40;24.40;51.10
7232;DHT22;3657;49.630;11.018;2023-06-19T01:06:10;24.40;51.20
7232;DHT22;3657;49.630;11.018;2023-06-19T01:08:49;24.40;51.20
7232;DHT22;3657;49.630;11.018;2023-06-19T01:11:21;24.30;51.20
7232;DHT22;3657;49.630;11.018;2023-06-19T01:13:53;24.30;51.20
7232;DHT22;3657;49.630;11.018;2023-06-19T01:16:23;24.30;51.20
7232;DHT22;3657;49.630;11.018;2023-06-19T01:18:52;24.30;51.30
7232;DHT22;3657;49.630;11.018;2023-06-19T01:21:19;24.20;51.30
7232;DHT22;3657;49.630;11.018;2023-06-19T01:23:47;24.20;51.30
7232;DHT22;3657;49.630;11.018;2023-06-19T01:26:16;24.20;51.40
7232;DHT22;3657;49.630;11.018;2023-06-19T01:28:45;24.10;51.40
7232;DHT22;3657;49.630;11.018;2023-06-19T01:31:20;24.10;51.40
7232;DHT22;3657;49.630;11.018;2023-06-19T01:33:50;24.10;51.50
7232;DHT22;3657;49.630;11.018;2023-06-19T01:36:19;24.10;51.50
7232;DHT22;3657;49.630;11.018;2023-06-19T01:38:48;24.00;51.60
7232;DHT22;3657;49.630;11.018;2023-06-19T01:41:16;24.00;51.50
7232;DHT22;3657;49.630;11.018;2023-06-19T01:43:45;24.00;51.70
7232;DHT22;3657;49.630;11.018;2023-06-19T01:46:12;24.00;51.70
7232;DHT22;3657;49.630;11.018;2023-06-19T01:48:39;23.90;51.80
7232;DHT22;3657;49.630;11.018;2023-06-19T01:51:06;23.90;51.70
7232;DHT22;3657;49.630;11.018;2023-06-19T01:53:33;23.90;51.70
7232;DHT22;3657;49.630;11.018;2023-06-19T01:56:01;23.80;51.70
7232;DHT22;3657;49.630;11.018;2023-06-19T01:58:28;23.80;51.80
7232;DHT22;3657;49.630;11.018;2023-06-19T02:00:55;23.80;51.80
7232;DHT22;3657;49.630;11.018;2023-06-19T02:03:22;23.70;51.70
7232;DHT22;3657;49.630;11.018;2023-06-19T02:05:48;23.70;51.80
7232;DHT22;3657;49.630;11.018;2023-06-19T02:08:15;23.70;51.80
7232;DHT22;3657;49.630;11.018;2023-06-19T02:10:42;23.70;51.80
7232;DHT22;3657;49.630;11.018;2023-06-19T02:13:10;23.60;51.80
7232;DHT22;3657;49.630;11.018;2023-06-19T02:15:36;23.60;51.80
7232;DHT22;3657;49.630;11.018;2023-06-19T02:18:04;23.60;52.40
7232;DHT22;3657;49.630;11.018;2023-06-19T02:20:31;23.50;51.90
7232;DHT22;3657;49.630;11.018;2023-06-19T02:22:58;23.50;51.90
7232;DHT22;3657;49.630;11.018;2023-06-19T02:25:24;23.50;52.00
7232;DHT22;3657;49.630;11.018;2023-06-19T02:27:51;23.50;52.00
7232;DHT22;3657;49.630;11.018;2023-06-19T02:30:19;23.40;52.00
7232;DHT22;3657;49.630;11.018;2023-06-19T02:32:45;23.40;52.10
7232;DHT22;3657;49.630;11.018;2023-06-19T02:35:12;23.40;52.20
7232;DHT22;3657;49.630;11.018;2023-06-19T02:37:40;23.40;52.30
7232;DHT22;3657;49.630;11.018;2023-06-19T02:40:08;23.30;52.20
7232;DHT22;3657;49.630;11.018;2023-06-19T02:42:36;23.30;52.30
7232;DHT22;3657;49.630;11.018;2023-06-19T02:45:03;23.30;52.30
7232;DHT22;3657;49.630;11.018;2023-06-19T02:47:31;23.30;52.40
7232;DHT22;3657;49.630;11.018;2023-06-19T02:49:58;23.20;52.40
7232;DHT22;3657;49.630;11.018;2023-06-19T02:52:25;23.20;52.50
7232;DHT22;3657;49.630;11.018;2023-06-19T02:54:52;23.20;52.60
7232;DHT22;3657;49.630;11.018;2023-06-19T02:57:18;23.10;52.60
7232;DHT22;3657;49.630;11.018;2023-06-19T02:59:45;23.10;52.70
7232;DHT22;3657;49.630;11.018;2023-06-19T03:02:12;23.10;52.70
7232;DHT22;3657;49.630;11.018;2023-06-19T03:04:40;23.10;52.80
7232;DHT22;3657;49.630;11.018;2023-06-19T03:07:07;23.00;52.90
7232;DHT22;3657;49.630;11.018;2023-06-19T03:09:34;23.00;53.00
7232;DHT22;3657;49.630;11.018;2023-06-19T03:12:00;23.00;53.10
7232;DHT22;3657;49.630;11.018;2023-06-19T03:14:27;23.00;53.20
7232;DHT22;3657;49.630;11.018;2023-06-19T03:16:54;22.90;53.20
7232;DHT22;3657;49.630;11.018;2023-06-19T03:19:21;22.90;53.20
7232;DHT22;3657;49.630;11.018;2023-06-19T03:21:49;22.90;53.30
7232;DHT22;3657;49.630;11.018;2023-06-19T03:24:15;22.80;53.30
7232;DHT22;3657;49.630;11.018;2023-06-19T03:26:42;22.80;53.20
7232;DHT22;3657;49.630;11.018;2023-06-19T03:29:09;22.80;53.20
7232;DHT22;3657;49.630;11.018;2023-06-19T03:31:35;22.80;53.30
7232;DHT22;3657;49.630;11.018;2023-06-19T03:34:05;22.80;53.40
7232;DHT22;3657;49.630;11.018;2023-06-19T03:36:31;22.70;53.40
7232;DHT22;3657;49.630;11.018;2023-06-19T03:38:59;22.70;53.40
7232;DHT22;3657;49.630;11.018;2023-06-19T03:41:26;22.60;53.40
7232;DHT22;3657;49.630;11.018;2023-06-19T03:43:53;22.70;53.50
7232;DHT22;3657;49.630;11.018;2023-06-19T03:46:19;22.60;54.00
7232;DHT22;3657;49.630;11.018;2023-06-19T03:48:46;22.60;53.80
7232;DHT22;3657;49.630;11.018;2023-06-19T03:51:13;22.60;53.70
7232;DHT22;3657;49.630;11.018;2023-06-19T03:53:39;22.60;53.70
7232;DHT22;3657;49.630;11.018;2023-06-19T03:56:08;22.60;54.40
7232;DHT22;3657;49.630;11.018;2023-06-19T03:58:35;22.60;53.80
7232;DHT22;3657;49.630;11.018;2023-06-19T04:01:02;22.50;54.20
7232;DHT22;3657;49.630;11.018;2023-06-19T04:03:29;22.40;55.40
7232;DHT22;3657;49.630;11.018;2023-06-19T04:05:55;22.20;55.50
7232;DHT22;3657;49.630;11.018;2023-06-19T04:08:22;21.70;55.20
7232;DHT22;3657;49.630;11.018;2023-06-19T04:10:50;21.60;54.50
7232;DHT22;3657;49.630;11.018;2023-06-19T04:13:18;21.40;53.90
7232;DHT22;3657;49.630;11.018;2023-06-19T04:15:45;21.40;54.00
7232;DHT22;3657;49.630;11.018;2023-06-19T04:18:12;21.50;54.00
7232;DHT22;3657;49.630;11.018;2023-06-19T04:20:38;21.40;54.10
7232;DHT22;3657;49.630;11.018;2023-06-19T04:23:05;21.50;54.30
7232;DHT22;3657;49.630;11.018;2023-06-19T04:25:32;21.50;54.50
7232;DHT22;3657;49.630;11.018;2023-06-19T04:27:59;21.40;54.20
7232;DHT22;3657;49.630;11.018;2023-06-19T04:30:30;21.40;54.30
7232;DHT22;3657;49.630;11.018;2023-06-19T04:32:57;21.40;54.50
7232;DHT22;3657;49.630;11.018;2023-06-19T04:35:24;21.40;54.60
7232;DHT22;3657;49.630;11.018;2023-06-19T04:37:51;21.50;54.70
7232;DHT22;3657;49.630;11.018;2023-06-19T04:40:17;21.50;55.40
7232;DHT22;3657;49.630;11.018;2023-06-19T04:42:44;21.50;54.90
7232;DHT22;3657;49.630;11.018;2023-06-19T04:45:11;21.50;55.00
7232;DHT22;3657;49.630;11.018;2023-06-19T04:47:39;21.50;55.40
7232;DHT22;3657;49.630;11.018;2023-06-19T04:50:07;21.50;55.30
7232;DHT22;3657;49.630;11.018;2023-06-19T04:52:34;21.60;54.90
7232;DHT22;3657;49.630;11.018;2023-06-19T04:55:01;21.80;55.10
7232;DHT22;3657;49.630;11.018;2023-06-19T04:57:27;21.70;55.00
7232;DHT22;3657;49.630;11.018;2023-06-19T04:59:54;21.70;55.70
7232;DHT22;3657;49.630;11.018;2023-06-19T05:02:21;21.70;55.40
7232;DHT22;3657;49.630;11.018;2023-06-19T05:04:50;21.70;55.80
7232;DHT22;3657;49.630;11.018;2023-06-19T05:07:17;21.70;55.80
7232;DHT22;3657;49.630;11.018;2023-06-19T05:09:44;21.80;55.80
7232;DHT22;3657;49.630;11.018;2023-06-19T05:12:11;21.80;55.20
7232;DHT22;3657;49.630;11.018;2023-06-19T05:14:38;21.70;55.60
7232;DHT22;3657;49.630;11.018;2023-06-19T05:17:05;21.80;56.20
7232;DHT22;3657;49.630;11.018;2023-06-19T05:19:32;21.90;55.50
7232;DHT22;3657;49.630;11.018;2023-06-19T05:22:00;22.00;55.40
7232;DHT22;3657;49.630;11.018;2023-06-19T05:24:26;22.20;56.00
7232;DHT22;3657;49.630;11.018;2023-06-19T05:26:53;22.30;55.60
7232;DHT22;3657;49.630;11.018;2023-06-19T05:29:20;22.40;56.50
7232;DHT22;3657;49.630;11.018;2023-06-19T05:31:46;22.60;54.50
7232;DHT22;3657;49.630;11.018;2023-06-19T05:34:13;22.70;56.00
7232;DHT22;3657;49.630;11.018;2023-06-19T05:36:40;22.70;54.90
7232;DHT22;3657;49.630;11.018;2023-06-19T05:39:08;22.70;55.00
7232;DHT22;3657;49.630;11.018;2023-06-19T05:41:35;22.70;54.50
7232;DHT22;3657;49.630;11.018;2023-06-19T05:44:02;22.70;56.50
7232;DHT22;3657;49.630;11.018;2023-06-19T05:46:28;22.80;56.70
7232;DHT22;3657;49.630;11.018;2023-06-19T05:48:55;22.80;55.40
7232;DHT22;3657;49.630;11.018;2023-06-19T05:51:22;22.80;54.80
7232;DHT22;3657;49.630;11.018;2023-06-19T05:53:49;22.90;54.40
7232;DHT22;3657;49.630;11.018;2023-06-19T05:56:17;23.00;54.50
7232;DHT22;3657;49.630;11.018;2023-06-19T05:58:43;23.10;54.80
7232;DHT22;3657;49.630;11.018;2023-06-19T06:01:10;23.20;56.00
7232;DHT22;3657;49.630;11.018;2023-06-19T06:03:37;23.20;56.20
7232;DHT22;3657;49.630;11.018;2023-06-19T06:06:04;23.20;54.40
7232;DHT22;3657;49.630;11.018;2023-06-19T06:08:31;23.30;56.40
7232;DHT22;3657;49.630;11.018;2023-06-19T06:10:58;23.30;56.10
7232;DHT22;3657;49.630;11.018;2023-06-19T06:13:26;23.30;54.80
7232;DHT22;3657;49.630;11.018;2023-06-19T06:15:53;23.30;55.00
7232;DHT22;3657;49.630;11.018;2023-06-19T06:18:19;23.30;55.60
7232;DHT22;3657;49.630;11.018;2023-06-19T06:20:46;23.40;56.80
7232;DHT22;3657;49.630;11.018;2023-06-19T06:23:13;23.90;56.00
7232;DHT22;3657;49.630;11.018;2023-06-19T06:25:40;24.50;55.60
7232;DHT22;3657;49.630;11.018;2023-06-19T06:28:07;25.10;56.00
7232;DHT22;3657;49.630;11.018;2023-06-19T06:30:35;25.60;56.50
7232;DHT22;3657;49.630;11.018;2023-06-19T06:33:02;25.90;54.70
7232;DHT22;3657;49.630;11.018;2023-06-19T06:35:29;25.80;57.00
7232;DHT22;3657;49.630;11.018;2023-06-19T06:37:55;25.40;57.20
7232;DHT22;3657;49.630;11.018;2023-06-19T06:40:22;25.00;56.10
7232;DHT22;3657;49.630;11.018;2023-06-19T06:42:49;24.70;57.60
7232;DHT22;3657;49.630;11.018;2023-06-19T06:45:15;24.50;58.30
7232;DHT22;3657;49.630;11.018;2023-06-19T06:47:43;24.30;56.40
7232;DHT22;3657;49.630;11.018;2023-06-19T06:50:10;24.10;56.80
7232;DHT22;3657;49.630;11.018;2023-06-19T06:52:37;24.10;56.40
7232;DHT22;3657;49.630;11.018;2023-06-19T06:55:04;24.00;57.90
7232;DHT22;3657;49.630;11.018;2023-06-19T06:57:31;24.00;59.30
7232;DHT22;3657;49.630;11.018;2023-06-19T06:59:58;23.90;59.10
7232;DHT22;3657;49.630;11.018;2023-06-19T07:02:24;24.00;57.20
7232;DHT22;3657;49.630;11.018;2023-06-19T07:04:52;23.90;57.20
7232;DHT22;3657;49.630;11.018;2023-06-19T07:07:19;24.00;56.60
7232;DHT22;3657;49.630;11.018;2023-06-19T07:09:46;24.00;57.60
7232;DHT22;3657;49.630;11.018;2023-06-19T07:12:13;24.10;60.90
7232;DHT22;3657;49.630;11.018;2023-06-19T07:14:40;24.10;59.60
7232;DHT22;3657;49.630;11.018;2023-06-19T07:17:06;24.20;58.10
7232;DHT22;3657;49.630;11.018;2023-06-19T07:19:33;24.20;59.10
7232;DHT22;3657;49.630;11.018;2023-06-19T07:22:01;24.30;56.70
7232;DHT22;3657;49.630;11.018;2023-06-19T07:24:28;24.40;57.30
7232;DHT22;3657;49.630;11.018;2023-06-19T07:26:55;24.40;59.70
7232;DHT22;3657;49.630;11.018;2023-06-19T07:29:22;24.40;59.80
7232;DHT22;3657;49.630;11.018;2023-06-19T07:31:49;24.40;57.90
7232;DHT22;3657;49.630;11.018;2023-06-19T07:34:15;24.50;59.20
7232;DHT22;3657;49.630;11.018;2023-06-19T07:36:42;24.60;57.10
7232;DHT22;3657;49.630;11.018;2023-06-19T07:39:10;24.60;58.70
7232;DHT22;3657;49.630;11.018;2023-06-19T07:41:37;24.60;58.40
7232;DHT22;3657;49.630;11.018;2023-06-19T07:44:04;24.70;60.80
7232;DHT22;3657;49.630;11.018;2023-06-19T07:46:30;25.00;57.50
7232;DHT22;3657;49.630;11.018;2023-06-19T07:48:57;25.40;58.70
7232;DHT22;3657;49.630;11.018;2023-06-19T07:51:24;25.70;56.70
7232;DHT22;3657;49.630;11.018;2023-06-19T07:53:51;25.80;57.00
7232;DHT22;3657;49.630;11.018;2023-06-19T07:56:19;25.80;57.00
7232;DHT22;3657;49.630;11.018;2023-06-19T07:58:45;25.80;60.60
7232;DHT22;3657;49.630;11.018;2023-06-19T08:01:12;25.80;57.50
7232;DHT22;3657;49.630;11.018;2023-06-19T08:03:39;25.90;58.80
7232;DHT22;3657;49.630;11.018;2023-06-19T08:06:06;25.90;57.80
7232;DHT22;3657;49.630;11.018;2023-06-19T08:08:32;25.90;58.00
7232;DHT22;3657;49.630;11.018;2023-06-19T08:10:59;25.90;57.60
7232;DHT22;3657;49.630;11.018;2023-06-19T08:13:27;25.90;57.50
7232;DHT22;3657;49.630;11.018;2023-06-19T08:15:54;26.10;58.30
7232;DHT22;3657;49.630;11.018;2023-06-19T08:18:20;26.30;58.00
7232;DHT22;3657;49.630;11.018;2023-06-19T08:20:47;26.60;59.00
7232;DHT22;3657;49.630;11.018;2023-06-19T08:23:14;26.80;59.10
7232;DHT22;3657;49.630;11.018;2023-06-19T08:25:41;27.20;58.40
7232;DHT22;3657;49.630;11.018;2023-06-19T08:28:08;27.50;58.10
7232;DHT22;3657;49.630;11.018;2023-06-19T08:30:36;27.60;57.50
7232;DHT22;3657;49.630;11.018;2023-06-19T08:33:03;27.70;58.50
7232;DHT22;3657;49.630;11.018;2023-06-19T08:35:29;27.50;57.20
7232;DHT22;3657;49.630;11.018;2023-06-19T08:37:56;27.50;59.90
7232;DHT22;3657;49.630;11.018;2023-06-19T08:40:23;27.30;59.20
7232;DHT22;3657;49.630;11.018;2023-06-19T08:42:49;27.30;58.50
7232;DHT22;3657;49.630;11.018;2023-06-19T08:45:17;27.20;58.90
7232;DHT22;3657;49.630;11.018;2023-06-19T08:47:48;27.10;58.90
7232;DHT22;3657;49.630;11.018;2023-06-19T08:50:15;27.10;59.20
7232;DHT22;3657;49.630;11.018;2023-06-19T08:52:41;27.10;58.50
7232;DHT22;3657;49.630;11.018;2023-06-19T08:55:08;27.10;58.60
7232;DHT22;3657;49.630;11.018;2023-06-19T08:57:37;27.00;59.30
7232;DHT22;3657;49.630;11.018;2023-06-19T09:00:05;27.00;58.90
7232;DHT22;3657;49.630;11.018;2023-06-19T09:02:40;27.00;59.40
7232;DHT22;3657;49.630;11.018;2023-06-19T09:05:14;27.00;59.10
7232;DHT22;3657;49.630;11.018;2023-06-19T09:07:41;27.10;59.10
7232;DHT22;3657;49.630;11.018;2023-06-19T09:10:15;27.10;59.50
7232;DHT22;3657;49.630;11.018;2023-06-19T09:12:42;27.10;59.10
7232;DHT22;3657;49.630;11.018;2023-06-19T09:15:14;27.10;59.50
7232;DHT22;3657;49.630;11.018;2023-06-19T09:17:41;27.20;59.50
7232;DHT22;3657;49.630;11.018;2023-06-19T09:20:09;27.10;59.80
7232;DHT22;3657;49.630;11.018;2023-06-19T09:22:38;27.10;59.70
7232;DHT22;3657;49.630;11.018;2023-06-19T09:25:06;27.20;59.40
7232;DHT22;3657;49.630;11.018;2023-06-19T09:27:35;27.10;59.40
7232;DHT22;3657;49.630;11.018;2023-06-19T09:30:04;27.10;59.90
7232;DHT22;3657;49.630;11.018;2023-06-19T09:32:31;27.10;60.00
7232;DHT22;3657;49.630;11.018;2023-06-19T09:34:58;27.00;60.10
7232;DHT22;3657;49.630;11.018;2023-06-19T09:37:25;27.00;62.70
7232;DHT22;3657;49.630;11.018;2023-06-19T09:39:55;27.10;60.10
7232;DHT22;3657;49.630;11.018;2023-06-19T09:42:30;27.00;60.80
7232;DHT22;3657;49.630;11.018;2023-06-19T09:45:00;27.10;61.00
7232;DHT22;3657;49.630;11.018;2023-06-19T09:47:31;27.20;61.30
7232;DHT22;3657;49.630;11.018;2023-06-19T09:49:59;27.30;60.80
7232;DHT22;3657;49.630;11.018;2023-06-19T09:52:26;27.30;60.60
7232;DHT22;3657;49.630;11.018;2023-06-19T09:54:55;27.20;62.90
7232;DHT22;3657;49.630;11.018;2023-06-19T09:57:22;27.30;60.60
7232;DHT22;3657;49.630;11.018;2023-06-19T09:59:51;27.30;61.80
7232;DHT22;3657;49.630;11.018;2023-06-19T10:02:19;27.30;60.90
7232;DHT22;3657;49.630;11.018;2023-06-19T10:04:48;27.30;60.20
7232;DHT22;3657;49.630;11.018;2023-06-19T10:07:17;27.40;59.90
7232;DHT22;3657;49.630;11.018;2023-06-19T10:09:59;27.50;59.80
7232;DHT22;3657;49.630;11.018;2023-06-19T10:12:40;27.60;59.90
7232;DHT22;3657;49.630;11.018;2023-06-19T10:15:09;27.60;59.60
7232;DHT22;3657;49.630;11.018;2023-06-19T10:17:36;27.70;59.50
7232;DHT22;3657;49.630;11.018;2023-06-19T10:20:03;27.80;59.40
7232;DHT22;3657;49.630;11.018;2023-06-19T10:22:36;28.00;59.30
7232;DHT22;3657;49.630;11.018;2023-06-19T10:25:05;28.20;59.10
7232;DHT22;3657;49.630;11.018;2023-06-19T10:27:34;28.70;58.70
7232;DHT22;3657;49.630;11.018;2023-06-19T10:30:04;29.10;58.80
7232;DHT22;3657;49.630;11.018;2023-06-19T10:32:31;29.40;59.00
7232;DHT22;3657;49.630;11.018;2023-06-19T10:34:58;29.70;58.30
7232;DHT22;3657;49.630;11.018;2023-06-19T10:37:32;29.90;57.90
7232;DHT22;3657;49.630;11.018;2023-06-19T10:39:59;30.10;58.30
7232;DHT22;3657;49.630;11.018;2023-06-19T10:42:27;30.10;57.60
7232;DHT22;3657;49.630;11.018;2023-06-19T10:44:59;30.20;58.40
7232;DHT22;3657;49.630;11.018;2023-06-19T10:47:26;30.20;58.50
7232;DHT22;3657;49.630;11.018;2023-06-19T10:49:54;30.50;58.10
7232;DHT22;3657;49.630;11.018;2023-06-19T10:52:21;30.60;58.00
7232;DHT22;3657;49.630;11.018;2023-06-19T10:54:53;30.70;58.30
7232;DHT22;3657;49.630;11.018;2023-06-19T10:57:28;31.00;58.20
7232;DHT22;3657;49.630;11.018;2023-06-19T10:59:54;30.90;58.40
7232;DHT22;3657;49.630;11.018;2023-06-19T11:02:22;31.10;58.60
7232;DHT22;3657;49.630;11.018;2023-06-19T11:04:49;31.40;58.20
7232;DHT22;3657;49.630;11.018;2023-06-19T11:07:18;31.60;58.20
7232;DHT22;3657;49.630;11.018;2023-06-19T11:09:44;31.80;58.00
7232;DHT22;3657;49.630;11.018;2023-06-19T11:12:11;31.60;57.70
7232;DHT22;3657;49.630;11.018;2023-06-19T11:14:39;31.50;58.30
7232;DHT22;3657;49.630;11.018;2023-06-19T11:17:07;31.70;58.50
7232;DHT22;3657;49.630;11.018;2023-06-19T11:19:35;32.00;58.60
7232;DHT22;3657;49.630;11.018;2023-06-19T11:22:04;32.20;58.90
7232;DHT22;3657;49.630;11.018;2023-06-19T11:24:32;32.30;58.40
7232;DHT22;3657;49.630;11.018;2023-06-19T11:26:59;32.40;58.30
7232;DHT22;3657;49.630;11.018;2023-06-19T11:29:29;32.50;58.20
7232;DHT22;3657;49.630;11.018;2023-06-19T11:32:07;32.30;57.70
7232;DHT22;3657;49.630;11.018;2023-06-19T11:34:34;32.70;58.40
7232;DHT22;3657;49.630;11.018;2023-06-19T11:37:02;32.90;58.10
7232;DHT22;3657;49.630;11.018;2023-06-19T11:39:31;32.90;58.20
7232;DHT22;3657;49.630;11.018;2023-06-19T11:41:59;32.90;58.30
7232;DHT22;3657;49.630;11.018;2023-06-19T11:44:26;33.00;58.30
7232;DHT22;3657;49.630;11.018;2023-06-19T11:46:56;33.00;58.50
7232;DHT22;3657;49.630;11.018;2023-06-19T11:49:24;33.00;58.50
7232;DHT22;3657;49.630;11.018;2023-06-19T11:51:51;33.10;58.40
7232;DHT22;3657;49.630;11.018;2023-06-19T11:54:19;33.10;57.30
7232;DHT22;3657;49.630;11.018;2023-06-19T11:56:46;33.20;58.30
7232;DHT22;3657;49.630;11.018;2023-06-19T11:59:13;33.40;58.00
7232;DHT22;3657;49.630;11.018;2023-06-19T12:01:41;33.40;58.40
7232;DHT22;3657;49.630;11.018;2023-06-19T12:04:07;33.60;58.20
7232;DHT22;3657;49.630;11.018;2023-06-19T12:06:35;33.70;58.10
7232;DHT22;3657;49.630;11.018;2023-06-19T12:09:02;33.80;58.20
7232;DHT22;3657;49.630;11.018;2023-06-19T12:11:30;33.80;58.20
7232;DHT22;3657;49.630;11.018;2023-06-19T12:13:57;34.00;58.10
7232;DHT22;3657;49.630;11.018;2023-06-19T12:16:24;34.30;57.40
7232;DHT22;3657;49.630;11.018;2023-06-19T12:18:51;34.60;56.40
7232;DHT22;3657;49.630;11.018;2023-06-19T12:21:17;34.70;57.00
7232;DHT22;3657;49.630;11.018;2023-06-19T12:23:45;34.90;57.10
7232;DHT22;3657;49.630;11.018;2023-06-19T12:26:12;34.70;57.40
7232;DHT22;3657;49.630;11.018;2023-06-19T12:28:39;34.70;57.40
7232;DHT22;3657;49.630;11.018;2023-06-19T12:31:06;34.80;57.40
7232;DHT22;3657;49.630;11.018;2023-06-19T12:33:33;35.00;57.30
7232;DHT22;3657;49.630;11.018;2023-06-19T12:35:59;35.20;57.30
7232;DHT22;3657;49.630;11.018;2023-06-19T12:38:26;35.30;56.90
7232;DHT22;3657;49.630;11.018;2023-06-19T12:40:54;35.60;56.40
7232;DHT22;3657;49.630;11.018;2023-06-19T12:43:21;35.50;54.70
7232;DHT22;3657;49.630;11.018;2023-06-19T12:45:48;35.60;56.20
7232;DHT22;3657;49.630;11.018;2023-06-19T12:48:14;35.70;56.10
7232;DHT22;3657;49.630;11.018;2023-06-19T12:50:42;35.80;56.50
7232;DHT22;3657;49.630;11.018;2023-06-19T12:53:09;36.00;56.00
7232;DHT22;3657;49.630;11.018;2023-06-19T12:55:37;36.00;54.80
7232;DHT22;3657;49.630;11.018;2023-06-19T12:58:04;36.10;55.70
7232;DHT22;3657;49.630;11.018;2023-06-19T13:00:31;36.20;55.80
7232;DHT22;3657;49.630;11.018;2023-06-19T13:02:58;36.30;55.80
7232;DHT22;3657;49.630;11.018;2023-06-19T13:05:25;36.30;54.50
7232;DHT22;3657;49.630;11.018;2023-06-19T13:07:51;36.30;55.60
7232;DHT22;3657;49.630;11.018;2023-06-19T13:10:18;36.30;55.60
7232;DHT22;3657;49.630;11.018;2023-06-19T13:12:45;36.30;55.50
7232;DHT22;3657;49.630;11.018;2023-06-19T13:15:13;36.30;55.50
7232;DHT22;3657;49.630;11.018;2023-06-19T13:17:39;36.40;55.30
7232;DHT22;3657;49.630;11.018;2023-06-19T13:20:07;36.50;55.20
7232;DHT22;3657;49.630;11.018;2023-06-19T13:22:34;36.30;55.10
7232;DHT22;3657;49.630;11.018;2023-06-19T13:25:01;36.40;54.90
7232;DHT22;3657;49.630;11.018;2023-06-19T13:27:28;36.50;54.90
7232;DHT22;3657;49.630;11.018;2023-06-19T13:29:55;36.60;54.80
7232;DHT22;3657;49.630;11.018;2023-06-19T13:32:23;36.60;54.60
7232;DHT22;3657;49.630;11.018;2023-06-19T13:34:49;36.60;54.60
7232;DHT22;3657;49.630;11.018;2023-06-19T13:37:18;36.70;54.50
7232;DHT22;3657;49.630;11.018;2023-06-19T13:39:45;36.80;54.10
7232;DHT22;3657;49.630;11.018;2023-06-19T13:42:12;36.80;54.00
7232;DHT22;3657;49.630;11.018;2023-06-19T13:44:38;36.80;53.80
7232;DHT22;3657;49.630;11.018;2023-06-19T13:47:06;37.00;53.80
7232;DHT22;3657;49.630;11.018;2023-06-19T13:49:34;37.00;53.10
7232;DHT22;3657;49.630;11.018;2023-06-19T13:52:00;37.10;52.60
7232;DHT22;3657;49.630;11.018;2023-06-19T13:54:27;37.30;53.10
7232;DHT22;3657;49.630;11.018;2023-06-19T13:56:54;37.30;53.00
7232;DHT22;3657;49.630;11.018;2023-06-19T13:59:21;37.50;52.80
7232;DHT22;3657;49.630;11.018;2023-06-19T14:01:47;37.50;52.20
7232;DHT22;3657;49.630;11.018;2023-06-19T14:04:14;37.50;52.60
7232;DHT22;3657;49.630;11.018;2023-06-19T14:06:42;37.80;52.10
7232;DHT22;3657;49.630;11.018;2023-06-19T14:09:09;38.00;52.00
7232;DHT22;3657;49.630;11.018;2023-06-19T14:11:36;38.10;52.10
7232;DHT22;3657;49.630;11.018;2023-06-19T14:14:02;38.20;51.40
7232;DHT22;3657;49.630;11.018;2023-06-19T14:16:29;38.10;52.00
7232;DHT22;3657;49.630;11.018;2023-06-19T14:18:56;38.00;52.00
7232;DHT22;3657;49.630;11.018;2023-06-19T14:21:22;38.00;52.10
7232;DHT22;3657;49.630;11.018;2023-06-19T14:23:51;37.90;52.10
7232;DHT22;3657;49.630;11.018;2023-06-19T14:26:17;37.90;51.90
7232;DHT22;3657;49.630;11.018;2023-06-19T14:28:44;37.80;51.90
7232;DHT22;3657;49.630;11.018;2023-06-19T14:31:11;37.80;51.90
7232;DHT22;3657;49.630;11.018;2023-06-19T14:33:37;37.70;51.90
7232;DHT22;3657;49.630;11.018;2023-06-19T14:36:04;37.50;52.00
7232;DHT22;3657;49.630;11.018;2023-06-19T14:38:31;37.50;52.00
7232;DHT22;3657;49.630;11.018;2023-06-19T14:41:00;37.50;52.10
7232;DHT22;3657;49.630;11.018;2023-06-19T14:43:27;37.40;52.20
7232;DHT22;3657;49.630;11.018;2023-06-19T14:45:55;37.30;52.10
7232;DHT22;3657;49.630;11.018;2023-06-19T14:48:21;37.30;52.20
7232;DHT22;3657;49.630;11.018;2023-06-19T14:50:48;37.30;52.10
7232;DHT22;3657;49.630;11.018;2023-06-19T14:53:15;37.20;52.00
7232;DHT22;3657;49.630;11.018;2023-06-19T14:55:41;37.20;52.20
7232;DHT22;3657;49.630;11.018;2023-06-19T14:58:13;36.80;52.10
7232;DHT22;3657;49.630;11.018;2023-06-19T15:00:40;36.50;52.70
7232;DHT22;3657;49.630;11.018;2023-06-19T15:03:07;36.60;52.90
7232;DHT22;3657;49.630;11.018;2023-06-19T15:05:34;36.60;52.90
7232;DHT22;3657;49.630;11.018;2023-06-19T15:08:00;36.60;52.90
7232;DHT22;3657;49.630;11.018;2023-06-19T15:10:28;36.60;52.70
7232;DHT22;3657;49.630;11.018;2023-06-19T15:12:55;36.70;52.70
7232;DHT22;3657;49.630;11.018;2023-06-19T15:15:23;36.70;52.70
7232;DHT22;3657;49.630;11.018;2023-06-19T15:17:50;36.60;52.70
7232;DHT22;3657;49.630;11.018;2023-06-19T15:20:16;36.60;52.70
7232;DHT22;3657;49.630;11.018;2023-06-19T15:22:44;36.60;52.70
7232;DHT22;3657;49.630;11.018;2023-06-19T15:25:10;36.50;52.80
7232;DHT22;3657;49.630;11.018;2023-06-19T15:27:37;36.40;52.80
7232;DHT22;3657;49.630;11.018;2023-06-19T15:30:05;36.40;52.90
7232;DHT22;3657;49.630;11.018;2023-06-19T15:32:33;36.30;52.90
7232;DHT22;3657;49.630;11.018;2023-06-19T15:35:00;36.30;53.00
7232;DHT22;3657;49.630;11.018;2023-06-19T15:37:26;36.20;52.90
7232;DHT22;3657;49.630;11.018;2023-06-19T15:39:53;36.10;52.70
7232;DHT22;3657;49.630;11.018;2023-06-19T15:42:24;36.10;52.70
7232;DHT22;3657;49.630;11.018;2023-06-19T15:44:50;36.20;52.50
7232;DHT22;3657;49.630;11.018;2023-06-19T15:47:17;36.10;52.30